Time;durP1;ratioP1;P1;durP2;ratioP2;P2;SDS_P1;SDS_P2;PMS_P1;PMS_P2;Temp;Humidity;BMP_temperature;BMP_pressure;BME280_temperature;BME280_humidity;BME280_pressure;Samples;Min_cycle;Max_cycle;Signal;HPM_P1;HPM_P2
2023/10/20 00:01:35;;;;;;;5.57;3.50;;;14.90;99.90;;;;;;5061293;28;20426;-71
2023/10/20 00:04:21;;;;;;;6.27;4.30;;;14.80;99.90;;;;;;5064663;28;20420;-72
2023/10/20 00:07:07;;;;;;;8.77;3.40;;;14.90;99.90;;;;;;5076753;28;20970;-72
2023/10/20 00:09:54;;;;;;;3.40;2.93;;;14.90;99.90;;;;;;5067109;28;20490;-72
2023/10/20 00:12:40;;;;;;;7.80;3.20;;;14.80;99.90;;;;;;5071198;28;20451;-71
2023/10/20 00:15:27;;;;;;;7.47;3.63;;;14.80;99.90;;;;;;5073000;28;20820;-73
2023/10/20 00:18:12;;;;;;;4.90;3.50;;;14.80;99.90;;;;;;5068896;28;20543;-72
2023/10/20 00:20:58;;;;;;;5.20;2.93;;;14.80;99.90;;;;;;5069101;28;20412;-72
2023/10/20 00:23:44;;;;;;;7.20;3.17;;;14.80;99.90;;;;;;5067149;28;20500;-72
2023/10/20 00:26:30;;;;;;;4.83;3.17;;;14.80;99.90;;;;;;5073154;28;20411;-71
2023/10/20 00:29:16;;;;;;;3.13;2.50;;;14.70;99.90;;;;;;5072432;28;20487;-72
2023/10/20 00:32:04;;;;;;;5.80;2.47;;;14.80;99.90;;;;;;5068860;28;20428;-72
2023/10/20 00:34:50;;;;;;;3.60;2.90;;;14.80;99.90;;;;;;5067687;28;20446;-72
2023/10/20 00:37:35;;;;;;;4.30;2.80;;;14.80;99.90;;;;;;5067919;28;20563;-72
2023/10/20 00:40:21;;;;;;;4.33;2.57;;;14.90;99.90;;;;;;5072528;28;20442;-73
2023/10/20 00:43:08;;;;;;;4.07;2.93;;;14.90;99.90;;;;;;5072530;28;20967;-73
2023/10/20 00:45:54;;;;;;;3.53;2.40;;;14.80;99.90;;;;;;5072417;28;20427;-72
2023/10/20 00:48:41;;;;;;;7.63;3.07;;;14.90;99.90;;;;;;5075213;28;20809;-72
2023/10/20 00:51:26;;;;;;;5.40;3.17;;;14.90;99.90;;;;;;5067774;28;20462;-73
2023/10/20 00:54:14;;;;;;;2.60;2.10;;;14.90;99.90;;;;;;5081153;28;20414;-72
2023/10/20 00:57:01;;;;;;;8.00;3.40;;;14.80;99.90;;;;;;5072395;28;20445;-72
2023/10/20 00:59:46;;;;;;;8.23;3.30;;;14.90;99.90;;;;;;5068196;28;20428;-72
2023/10/20 01:02:32;;;;;;;4.83;2.47;;;14.90;99.90;;;;;;5076756;28;20782;-72
2023/10/20 01:05:22;;;;;;;5.47;2.67;;;14.90;99.90;;;;;;5082874;28;20425;-72
2023/10/20 01:08:08;;;;;;;3.47;2.50;;;14.90;99.90;;;;;;5075104;28;20850;-73
2023/10/20 01:10:54;;;;;;;5.43;2.90;;;14.90;99.90;;;;;;5080908;28;20405;-72
2023/10/20 01:13:40;;;;;;;5.50;2.60;;;14.90;99.90;;;;;;5076759;28;20401;-72
2023/10/20 01:16:25;;;;;;;6.83;2.00;;;14.90;99.90;;;;;;5074236;28;20448;-72
2023/10/20 01:19:11;;;;;;;2.43;2.23;;;14.90;99.90;;;;;;5077054;28;20396;-71
2023/10/20 01:21:59;;;;;;;4.43;2.60;;;14.90;99.90;;;;;;5075988;28;20433;-72
2023/10/20 01:24:45;;;;;;;8.23;2.87;;;14.90;99.90;;;;;;5068687;28;20422;-72
2023/10/20 01:27:31;;;;;;;4.03;2.60;;;14.90;99.90;;;;;;5075133;28;20417;-72
2023/10/20 01:30:17;;;;;;;21.50;2.90;;;15.00;99.90;;;;;;5081360;28;20466;-72
2023/10/20 01:33:02;;;;;;;3.10;2.07;;;14.90;99.90;;;;;;5083118;28;20406;-72
2023/10/20 01:35:48;;;;;;;3.03;2.50;;;14.90;99.90;;;;;;5071463;28;20441;-72
2023/10/20 01:38:34;;;;;;;6.93;2.40;;;14.90;99.90;;;;;;5075796;28;20405;-72
2023/10/20 01:41:21;;;;;;;10.43;2.63;;;14.90;99.90;;;;;;5078095;28;20461;-72
2023/10/20 01:44:08;;;;;;;8.53;2.73;;;14.90;99.90;;;;;;5078584;28;20581;-72
2023/10/20 01:46:54;;;;;;;2.97;2.60;;;14.90;99.90;;;;;;5075427;28;20405;-73
2023/10/20 01:49:39;;;;;;;5.40;2.47;;;14.90;99.90;;;;;;5070274;28;20441;-72
2023/10/20 01:52:26;;;;;;;8.43;3.10;;;14.90;99.90;;;;;;5075588;28;20467;-72
2023/10/20 01:55:11;;;;;;;5.23;2.90;;;14.90;99.90;;;;;;5081375;28;20429;-72
2023/10/20 01:57:58;;;;;;;4.90;2.80;;;14.90;99.90;;;;;;5075605;28;20458;-72
2023/10/20 02:00:45;;;;;;;5.33;2.90;;;14.90;99.90;;;;;;5077247;28;20390;-71
2023/10/20 02:03:30;;;;;;;7.20;3.03;;;14.90;99.90;;;;;;5068129;28;20435;-72
2023/10/20 02:06:16;;;;;;;4.57;2.77;;;14.90;99.90;;;;;;5063474;28;20429;-72
2023/10/20 02:09:03;;;;;;;3.00;2.70;;;14.90;99.90;;;;;;5068450;28;20975;-72
2023/10/20 02:11:48;;;;;;;4.80;2.50;;;14.90;99.90;;;;;;5075778;28;20562;-72
2023/10/20 02:14:35;;;;;;;4.80;2.30;;;14.90;99.90;;;;;;5070358;28;20516;-72
2023/10/20 02:17:21;;;;;;;8.40;3.10;;;14.90;99.90;;;;;;5065615;28;20444;-72
2023/10/20 02:20:07;;;;;;;9.50;2.20;;;14.90;99.90;;;;;;5063563;28;20773;-72
2023/10/20 02:22:54;;;;;;;3.50;2.83;;;14.80;99.90;;;;;;5064336;28;20443;-72
2023/10/20 02:25:39;;;;;;;6.40;2.57;;;14.80;99.90;;;;;;5070409;28;20446;-72
2023/10/20 02:28:26;;;;;;;11.43;2.70;;;14.80;99.90;;;;;;5076315;28;20424;-72
2023/10/20 02:31:14;;;;;;;8.07;3.73;;;14.80;99.90;;;;;;5077516;28;20400;-72
2023/10/20 02:34:00;;;;;;;9.10;3.00;;;14.80;99.90;;;;;;5073454;28;20405;-72
2023/10/20 02:36:48;;;;;;;3.43;2.40;;;14.70;99.90;;;;;;5071333;28;20444;-72
2023/10/20 02:39:34;;;;;;;10.33;3.10;;;14.80;99.90;;;;;;5075442;28;20521;-72
2023/10/20 02:42:19;;;;;;;13.43;3.50;;;14.70;99.90;;;;;;5071458;28;20422;-72
2023/10/20 02:45:10;;;;;;;7.17;3.30;;;14.70;99.90;;;;;;5078732;28;20409;-72
2023/10/20 02:47:57;;;;;;;4.93;3.20;;;14.70;99.90;;;;;;5073409;28;20425;-72
2023/10/20 02:50:43;;;;;;;11.43;3.00;;;14.60;99.90;;;;;;5068020;28;20441;-73
2023/10/20 02:53:28;;;;;;;7.43;3.07;;;14.70;99.90;;;;;;5075615;28;20427;-72
2023/10/20 02:56:15;;;;;;;9.13;3.20;;;14.60;99.90;;;;;;5079402;28;20427;-72
2023/10/20 02:59:01;;;;;;;7.50;2.90;;;14.60;99.90;;;;;;5066150;28;20445;-72
2023/10/20 03:01:46;;;;;;;4.33;2.70;;;14.60;99.90;;;;;;5077146;28;20401;-72
2023/10/20 03:04:34;;;;;;;5.17;2.70;;;14.60;99.90;;;;;;5074648;28;20476;-72
2023/10/20 03:07:24;;;;;;;5.00;3.20;;;14.70;99.90;;;;;;5071853;28;20562;-72
2023/10/20 03:10:11;;;;;;;8.60;3.13;;;14.60;99.90;;;;;;5066493;28;20611;-72
2023/10/20 03:12:57;;;;;;;6.70;3.53;;;14.60;99.90;;;;;;5069842;28;20936;-72
2023/10/20 03:15:43;;;;;;;4.47;2.97;;;14.60;99.90;;;;;;5071995;28;20457;-72
2023/10/20 03:18:29;;;;;;;3.63;2.80;;;14.60;99.90;;;;;;5077379;28;20461;-72
2023/10/20 03:21:18;;;;;;;4.20;2.73;;;14.60;99.90;;;;;;5082095;28;20430;-72
2023/10/20 03:24:04;;;;;;;3.37;3.00;;;14.60;99.90;;;;;;5081127;28;20765;-72
2023/10/20 03:26:50;;;;;;;5.70;3.53;;;14.60;99.90;;;;;;5081161;28;20939;-72
2023/10/20 03:29:36;;;;;;;5.83;3.07;;;14.60;99.90;;;;;;5079416;28;20565;-72
2023/10/20 03:32:21;;;;;;;7.80;3.30;;;14.60;99.90;;;;;;5079509;28;20405;-72
2023/10/20 03:35:08;;;;;;;4.27;3.53;;;14.70;99.90;;;;;;5086906;28;20433;-72
2023/10/20 03:37:57;;;;;;;4.77;3.90;;;14.70;99.90;;;;;;5077369;28;20425;-72
2023/10/20 03:40:44;;;;;;;3.40;3.00;;;14.70;99.90;;;;;;5074849;28;20420;-73
2023/10/20 03:43:30;;;;;;;4.40;3.10;;;14.70;99.90;;;;;;5069842;28;20417;-72
2023/10/20 03:46:16;;;;;;;5.23;3.53;;;14.80;99.90;;;;;;5070876;28;20419;-72
2023/10/20 03:49:04;;;;;;;6.47;3.03;;;14.80;99.90;;;;;;5071472;28;20464;-72
2023/10/20 03:51:50;;;;;;;5.30;3.40;;;14.70;99.90;;;;;;5083308;28;20427;-72
2023/10/20 03:54:38;;;;;;;4.93;3.30;;;14.70;99.90;;;;;;5083200;28;20464;-72
2023/10/20 03:57:24;;;;;;;7.40;5.53;;;14.70;99.90;;;;;;5064604;28;20445;-72
2023/10/20 04:00:21;;;;;;;7.07;4.23;;;14.60;99.90;;;;;;5076067;28;20417;-71
2023/10/20 04:03:08;;;;;;;6.30;3.43;;;14.70;99.90;;;;;;5074009;28;20446;-71
2023/10/20 04:05:53;;;;;;;6.77;3.87;;;14.70;99.90;;;;;;5076635;28;20490;-71
2023/10/20 04:08:38;;;;;;;7.70;3.30;;;14.70;99.90;;;;;;5068448;28;20478;-70
2023/10/20 04:11:25;;;;;;;8.10;3.70;;;14.70;99.90;;;;;;5073767;28;20425;-72
2023/10/20 04:14:12;;;;;;;5.17;3.60;;;14.60;99.90;;;;;;5068430;28;20409;-71
2023/10/20 04:16:58;;;;;;;11.93;3.40;;;14.60;99.90;;;;;;5082415;28;20948;-72
2023/10/20 04:19:43;;;;;;;6.70;3.27;;;14.60;99.90;;;;;;5083177;28;20895;-72
2023/10/20 04:22:29;;;;;;;11.00;3.80;;;14.60;99.90;;;;;;5074234;28;20406;-72
2023/10/20 04:25:15;;;;;;;16.97;5.20;;;14.60;99.90;;;;;;5082115;28;20445;-72
2023/10/20 04:28:11;;;;;;;8.23;4.23;;;14.50;99.90;;;;;;5078704;28;20988;-72
2023/10/20 04:58:43;;;;;;;8.87;4.60;;;14.60;99.90;;;;;;5062322;28;20830;-70
2023/10/20 05:01:39;;;;;;;7.40;4.40;;;14.60;99.90;;;;;;5066339;28;20850;-72
2023/10/20 05:04:28;;;;;;;4.70;3.20;;;14.70;99.90;;;;;;5069030;28;20415;-72
2023/10/20 05:07:16;;;;;;;10.77;4.07;;;14.80;99.90;;;;;;5067622;28;20437;-72
2023/10/20 05:10:04;;;;;;;3.83;3.30;;;14.80;99.90;;;;;;5077054;28;20967;-72
2023/10/20 05:12:50;;;;;;;8.20;3.77;;;14.70;99.90;;;;;;5069584;28;20490;-72
2023/10/20 05:15:40;;;;;;;7.70;3.80;;;14.80;99.90;;;;;;5079931;28;20422;-72
2023/10/20 05:18:25;;;;;;;5.90;3.90;;;14.80;99.90;;;;;;5076214;28;20440;-71
2023/10/20 05:21:12;;;;;;;14.80;4.20;;;14.80;99.90;;;;;;5081459;28;20606;-71
2023/10/20 05:23:57;;;;;;;8.03;3.90;;;14.80;99.90;;;;;;5071003;28;20426;-72
2023/10/20 05:26:46;;;;;;;6.23;4.10;;;14.80;99.90;;;;;;5083074;28;20442;-71
2023/10/20 05:29:31;;;;;;;9.00;3.53;;;14.80;99.90;;;;;;5080564;28;20461;-72
2023/10/20 05:32:19;;;;;;;5.90;4.97;;;14.70;99.90;;;;;;5086336;28;20523;-72
2023/10/20 05:35:07;;;;;;;10.20;4.43;;;14.70;99.90;;;;;;5079144;28;20405;-72
2023/10/20 05:37:53;;;;;;;6.30;4.60;;;14.70;99.90;;;;;;5081606;28;20848;-72
2023/10/20 05:40:39;;;;;;;7.33;4.60;;;14.70;99.90;;;;;;5074929;28;20430;-72
2023/10/20 05:43:25;;;;;;;8.10;4.67;;;14.70;99.90;;;;;;5081435;28;20884;-72
2023/10/20 05:46:15;;;;;;;6.20;5.33;;;14.70;99.90;;;;;;5081349;28;20501;-72
2023/10/20 05:49:02;;;;;;;10.20;5.13;;;14.80;99.90;;;;;;5082236;28;20819;-72
2023/10/20 05:51:48;;;;;;;8.53;4.70;;;14.80;99.90;;;;;;5074650;28;20418;-72
2023/10/20 05:54:33;;;;;;;6.73;5.43;;;14.80;99.90;;;;;;5082750;28;20768;-72
2023/10/20 05:57:20;;;;;;;7.13;5.20;;;14.80;99.90;;;;;;5070844;28;20887;-71
2023/10/20 06:00:09;;;;;;;5.37;4.03;;;14.80;99.90;;;;;;5079938;28;20442;-72
2023/10/20 06:02:55;;;;;;;5.47;4.03;;;14.80;99.90;;;;;;5078073;28;20516;-72
2023/10/20 06:05:42;;;;;;;9.93;4.90;;;14.80;99.90;;;;;;5081909;28;20523;-72
2023/10/20 06:08:29;;;;;;;8.17;5.00;;;14.90;99.90;;;;;;5081516;28;20464;-71
2023/10/20 06:11:15;;;;;;;7.33;4.37;;;14.90;99.90;;;;;;5084071;28;20573;-72
2023/10/20 06:14:00;;;;;;;6.23;3.67;;;14.90;99.90;;;;;;5068155;28;20421;-72
2023/10/20 06:16:46;;;;;;;7.30;5.13;;;14.90;99.90;;;;;;5075459;28;20993;-72
2023/10/20 06:19:32;;;;;;;5.40;4.13;;;14.90;99.90;;;;;;5074775;28;20537;-72
2023/10/20 06:22:19;;;;;;;5.47;4.40;;;14.90;99.90;;;;;;5082833;28;20919;-72
2023/10/20 06:25:10;;;;;;;7.07;4.03;;;14.90;99.90;;;;;;5079154;28;20393;-72
2023/10/20 06:27:56;;;;;;;6.93;4.60;;;14.80;99.90;;;;;;5077041;28;20416;-72
2023/10/20 06:30:44;;;;;;;5.10;4.03;;;14.80;99.90;;;;;;5072450;28;20478;-72
2023/10/20 06:33:34;;;;;;;7.67;5.40;;;14.80;99.90;;;;;;5079058;28;20454;-71
2023/10/20 06:36:25;;;;;;;10.17;5.10;;;14.80;99.90;;;;;;5079284;28;20418;-72
2023/10/20 06:39:13;;;;;;;12.50;4.90;;;14.80;99.90;;;;;;5086290;28;20956;-72
2023/10/20 06:41:59;;;;;;;11.03;5.60;;;14.70;99.90;;;;;;5086324;28;20633;-72
2023/10/20 06:44:44;;;;;;;9.30;5.73;;;14.80;99.90;;;;;;5078536;28;20401;-72
2023/10/20 06:47:30;;;;;;;6.87;5.33;;;14.70;99.90;;;;;;5072421;28;20797;-72
2023/10/20 06:50:16;;;;;;;14.33;7.00;;;14.80;99.90;;;;;;5084515;28;20477;-72
2023/10/20 06:53:01;;;;;;;11.43;6.80;;;14.80;99.90;;;;;;5076913;28;20418;-71
2023/10/20 06:55:49;;;;;;;12.67;7.20;;;14.80;99.90;;;;;;5086383;28;20484;-72
2023/10/20 06:58:35;;;;;;;31.00;14.00;;;14.80;99.90;;;;;;5077645;28;20836;-71
2023/10/20 07:01:20;;;;;;;14.23;10.80;;;14.80;99.90;;;;;;5077971;28;20775;-72
2023/10/20 07:04:08;;;;;;;15.40;7.57;;;14.80;99.90;;;;;;5081878;28;20426;-72
2023/10/20 07:06:54;;;;;;;7.27;5.70;;;14.90;99.90;;;;;;5081934;28;20473;-72
2023/10/20 07:09:40;;;;;;;5.90;5.00;;;14.90;99.90;;;;;;5089407;28;20407;-72
2023/10/20 07:12:27;;;;;;;12.90;5.00;;;14.90;99.90;;;;;;5083030;28;20417;-72
2023/10/20 07:15:13;;;;;;;13.83;5.00;;;14.90;99.90;;;;;;5085564;28;20454;-72
2023/10/20 07:17:59;;;;;;;4.73;3.33;;;14.90;99.90;;;;;;5083052;28;20618;-72
2023/10/20 07:20:45;;;;;;;4.30;3.50;;;14.90;99.90;;;;;;5083637;28;20796;-72
2023/10/20 07:23:31;;;;;;;4.90;4.03;;;14.90;99.90;;;;;;5084633;28;20467;-72
2023/10/20 07:26:18;;;;;;;5.30;3.80;;;15.00;99.90;;;;;;5077126;28;20442;-71
2023/10/20 07:29:05;;;;;;;5.30;3.93;;;15.10;99.90;;;;;;5086649;28;20453;-71
2023/10/20 07:31:51;;;;;;;7.93;3.87;;;15.10;99.90;;;;;;5079717;28;20528;-71
2023/10/20 07:34:37;;;;;;;4.57;3.97;;;15.10;99.90;;;;;;5084669;28;20803;-72
2023/10/20 07:37:22;;;;;;;4.00;3.40;;;15.10;99.90;;;;;;5086037;28;20412;-72
2023/10/20 07:40:09;;;;;;;6.23;3.47;;;15.20;99.90;;;;;;5078782;28;20557;-72
2023/10/20 07:42:55;;;;;;;5.30;3.57;;;15.20;99.90;;;;;;5082614;28;20478;-72
2023/10/20 07:45:43;;;;;;;9.07;3.83;;;15.30;99.90;;;;;;5087069;28;20426;-72
2023/10/20 07:48:28;;;;;;;4.87;3.80;;;15.30;99.90;;;;;;5082851;28;20776;-71
2023/10/20 07:51:14;;;;;;;4.33;3.83;;;15.30;99.90;;;;;;5089446;28;20547;-72
2023/10/20 07:53:59;;;;;;;6.33;4.00;;;15.30;99.90;;;;;;5079393;28;20420;-72
2023/10/20 07:56:45;;;;;;;5.23;4.10;;;15.40;99.90;;;;;;5077453;28;20799;-72
2023/10/20 07:59:31;;;;;;;9.70;4.83;;;15.50;99.90;;;;;;5085678;28;20396;-72
2023/10/20 08:02:18;;;;;;;4.93;4.10;;;15.50;99.90;;;;;;5080210;28;20411;-72
2023/10/20 08:05:05;;;;;;;6.90;5.07;;;15.50;99.90;;;;;;5080525;28;21004;-72
2023/10/20 08:07:51;;;;;;;9.17;5.10;;;15.50;99.90;;;;;;5076698;28;20990;-72
2023/10/20 08:10:37;;;;;;;6.70;5.23;;;15.50;99.90;;;;;;5078013;28;20440;-72
2023/10/20 08:13:23;;;;;;;26.57;6.90;;;15.50;99.90;;;;;;5070894;28;20503;-72
2023/10/20 08:16:10;;;;;;;5.77;4.70;;;15.50;99.90;;;;;;5076423;28;20433;-71
2023/10/20 08:18:58;;;;;;;5.47;4.70;;;15.50;99.90;;;;;;5074353;28;20457;-72
2023/10/20 08:21:44;;;;;;;6.30;4.53;;;15.50;99.90;;;;;;5078063;28;20439;-72
2023/10/20 08:24:29;;;;;;;4.73;4.23;;;15.50;99.90;;;;;;5079428;28;20420;-72
2023/10/20 08:27:18;;;;;;;5.43;4.50;;;15.50;99.90;;;;;;5085115;28;20547;-71
2023/10/20 08:30:05;;;;;;;6.23;5.27;;;15.60;99.90;;;;;;5071719;28;20435;-72
2023/10/20 08:32:51;;;;;;;6.07;4.73;;;15.60;99.90;;;;;;5073384;28;20810;-72
2023/10/20 08:35:38;;;;;;;6.30;4.27;;;15.60;99.90;;;;;;5074818;28;20978;-72
2023/10/20 08:38:24;;;;;;;7.93;4.30;;;15.70;99.90;;;;;;5072949;28;20785;-72
2023/10/20 08:41:11;;;;;;;7.70;4.33;;;15.70;99.90;;;;;;5071004;28;20803;-72
2023/10/20 08:43:57;;;;;;;8.60;4.73;;;15.70;99.90;;;;;;5071884;28;20886;-71
2023/10/20 08:46:43;;;;;;;10.40;5.20;;;15.70;99.90;;;;;;5070212;28;21652;-72
2023/10/20 08:49:30;;;;;;;13.47;7.57;;;15.70;99.90;;;;;;5080010;28;20435;-73
2023/10/20 08:52:18;;;;;;;9.23;3.87;;;15.70;99.90;;;;;;5080409;28;20479;-72
2023/10/20 08:55:07;;;;;;;5.90;4.20;;;15.70;99.90;;;;;;5084054;28;20556;-72
2023/10/20 08:57:53;;;;;;;5.60;4.60;;;15.70;99.90;;;;;;5082775;28;20463;-72
2023/10/20 09:00:38;;;;;;;8.40;5.30;;;15.80;99.90;;;;;;5087603;28;20453;-73
2023/10/20 09:03:25;;;;;;;6.43;4.53;;;15.80;99.90;;;;;;5066437;28;20781;-72
2023/10/20 09:06:14;;;;;;;5.53;4.97;;;15.70;99.90;;;;;;5077237;28;21000;-73
2023/10/20 09:09:05;;;;;;;4.70;3.60;;;15.70;99.90;;;;;;5081353;28;20579;-72
2023/10/20 09:11:51;;;;;;;6.30;4.70;;;15.80;99.90;;;;;;5066267;28;21024;-72
2023/10/20 09:14:39;;;;;;;5.40;4.40;;;15.70;99.90;;;;;;5079593;28;20510;-72
2023/10/20 09:17:26;;;;;;;11.53;4.80;;;15.80;99.90;;;;;;5073533;28;20461;-72
2023/10/20 09:20:14;;;;;;;5.70;4.27;;;15.80;99.90;;;;;;5071876;28;20444;-72
2023/10/20 09:22:59;;;;;;;8.10;5.00;;;15.80;99.90;;;;;;5074320;28;20565;-72
2023/10/20 09:25:47;;;;;;;5.97;4.73;;;15.80;99.90;;;;;;5081428;28;20949;-72
2023/10/20 09:28:32;;;;;;;7.20;5.07;;;15.80;99.90;;;;;;5070301;28;20478;-70
2023/10/20 09:31:19;;;;;;;12.23;7.00;;;15.80;99.90;;;;;;5078610;28;20519;-72
2023/10/20 09:34:06;;;;;;;8.17;6.40;;;15.80;99.90;;;;;;5073154;28;20447;-72
2023/10/20 09:36:54;;;;;;;11.23;8.80;;;15.80;99.90;;;;;;5073436;28;20450;-72
2023/10/20 09:39:40;;;;;;;13.67;9.90;;;15.80;99.90;;;;;;5071410;28;20516;-72
2023/10/20 09:42:27;;;;;;;14.63;10.27;;;15.80;99.90;;;;;;5082678;28;20557;-72
2023/10/20 09:45:17;;;;;;;10.43;8.70;;;15.90;99.90;;;;;;5083641;28;20396;-71
2023/10/20 09:48:16;;;;;;;14.40;10.00;;;15.80;99.90;;;;;;5076293;28;20503;-72
2023/10/20 09:51:02;;;;;;;18.23;10.03;;;15.80;99.90;;;;;;5071443;28;20812;-72
2023/10/20 09:53:50;;;;;;;15.30;9.00;;;15.80;99.90;;;;;;5066465;28;20582;-72
2023/10/20 09:56:35;;;;;;;13.40;9.00;;;15.80;99.90;;;;;;5067622;28;20434;-72
2023/10/20 09:59:26;;;;;;;11.63;9.23;;;15.80;99.90;;;;;;5086485;22;20475;-77
2023/10/20 10:02:11;;;;;;;18.93;9.97;;;15.80;99.90;;;;;;5084902;28;20984;-77
2023/10/20 10:04:57;;;;;;;10.27;8.53;;;15.90;99.90;;;;;;5077268;28;20473;-76
2023/10/20 10:07:43;;;;;;;11.83;8.40;;;16.00;99.90;;;;;;5073398;28;20449;-76
2023/10/20 10:10:29;;;;;;;10.77;7.67;;;16.10;99.90;;;;;;5077777;28;20392;-76
2023/10/20 10:13:14;;;;;;;15.80;9.10;;;16.20;99.90;;;;;;5062821;28;20439;-76
2023/10/20 10:16:12;;;;;;;9.57;7.50;;;16.20;99.90;;;;;;5071020;28;20430;-76
2023/10/20 10:19:08;;;;;;;9.43;7.63;;;16.20;99.90;;;;;;5073581;28;20495;-76
2023/10/20 10:21:56;;;;;;;16.23;9.37;;;16.30;99.90;;;;;;5070717;28;20493;-75
2023/10/20 10:24:49;;;;;;;10.07;7.67;;;16.30;99.90;;;;;;5075334;28;20946;-75
2023/10/20 10:27:36;;;;;;;9.70;7.80;;;16.40;99.90;;;;;;5076403;28;20440;-75
2023/10/20 10:30:28;;;;;;;7.90;7.10;;;16.50;99.90;;;;;;5074700;28;20512;-77
2023/10/20 10:33:21;;;;;;;9.80;7.53;;;16.60;99.90;;;;;;5079156;28;20397;-77
2023/10/20 10:36:10;;;;;;;10.30;6.80;;;16.70;99.90;;;;;;5083354;28;20944;-76
2023/10/20 10:38:55;;;;;;;9.90;7.60;;;16.80;99.90;;;;;;5080766;28;20553;-76
2023/10/20 10:41:41;;;;;;;11.90;8.00;;;16.70;99.90;;;;;;5078256;28;20911;-76
2023/10/20 10:44:27;;;;;;;11.83;8.13;;;16.80;99.90;;;;;;5073745;28;20430;-76
2023/10/20 10:47:19;;;;;;;8.13;6.97;;;16.80;99.90;;;;;;5061827;28;20442;-77
2023/10/20 10:50:07;;;;;;;9.03;7.60;;;16.70;99.90;;;;;;5076250;28;20449;-76
2023/10/20 10:52:53;;;;;;;10.33;7.50;;;16.70;99.90;;;;;;5071169;28;20450;-76
2023/10/20 10:55:39;;;;;;;11.13;8.10;;;16.80;99.90;;;;;;5083852;28;20556;-77
2023/10/20 10:58:25;;;;;;;11.13;7.60;;;16.80;99.90;;;;;;5069607;28;20482;-76
2023/10/20 11:01:10;;;;;;;10.67;7.43;;;16.80;99.90;;;;;;5083178;28;20818;-77
2023/10/20 11:03:57;;;;;;;10.60;7.70;;;16.80;99.90;;;;;;5067465;28;20422;-76
2023/10/20 11:06:44;;;;;;;8.30;6.97;;;16.80;99.90;;;;;;5082046;28;20428;-76
2023/10/20 11:09:33;;;;;;;9.07;6.40;;;16.80;99.90;;;;;;5080554;28;20412;-76
2023/10/20 11:12:18;;;;;;;9.57;7.80;;;16.80;99.90;;;;;;5076811;28;20452;-76
2023/10/20 11:15:05;;;;;;;9.67;6.97;;;16.90;99.90;;;;;;5084920;28;20824;-75
2023/10/20 11:17:51;;;;;;;10.47;8.53;;;16.90;99.90;;;;;;5082519;28;20455;-76
2023/10/20 11:20:40;;;;;;;9.13;7.53;;;16.90;99.90;;;;;;5081672;28;20435;-75
2023/10/20 11:23:31;;;;;;;12.33;8.13;;;17.00;99.90;;;;;;5081774;28;20417;-76
2023/10/20 11:26:17;;;;;;;7.90;7.00;;;17.00;99.90;;;;;;5092117;28;20920;-76
2023/10/20 11:29:03;;;;;;;8.00;7.00;;;17.10;99.90;;;;;;5090071;28;20427;-76
2023/10/20 11:31:49;;;;;;;6.97;5.70;;;17.10;99.90;;;;;;5092033;28;20573;-75
2023/10/20 11:34:36;;;;;;;10.73;5.83;;;17.20;99.90;;;;;;5079876;28;20605;-76
2023/10/20 11:37:22;;;;;;;7.60;4.57;;;17.30;99.90;;;;;;5076800;28;20435;-76
2023/10/20 11:40:12;;;;;;;6.57;4.50;;;17.20;99.90;;;;;;5078383;28;20394;-76
2023/10/20 11:42:58;;;;;;;4.77;3.83;;;17.10;99.90;;;;;;5088120;28;20403;-75
2023/10/20 11:45:44;;;;;;;3.90;3.50;;;17.00;99.90;;;;;;5072601;28;20804;-76
2023/10/20 11:48:29;;;;;;;4.50;3.27;;;17.00;99.90;;;;;;5086879;28;20905;-75
2023/10/20 11:51:15;;;;;;;6.90;3.43;;;17.00;99.90;;;;;;5084291;28;20433;-75
2023/10/20 11:54:00;;;;;;;4.87;3.10;;;17.00;99.90;;;;;;5068704;28;20408;-75
2023/10/20 11:56:48;;;;;;;9.00;3.43;;;17.10;99.90;;;;;;5088085;28;20528;-75
2023/10/20 11:59:33;;;;;;;4.13;3.27;;;17.10;99.90;;;;;;5086744;28;20974;-75
2023/10/20 12:02:19;;;;;;;3.13;2.70;;;17.10;99.90;;;;;;5091721;28;20475;-75
2023/10/20 12:05:06;;;;;;;7.77;4.33;;;17.10;99.90;;;;;;5081725;28;20496;-75
2023/10/20 12:07:51;;;;;;;3.83;3.30;;;17.00;99.90;;;;;;5088512;28;20564;-75
2023/10/20 12:10:39;;;;;;;6.90;3.50;;;17.00;99.90;;;;;;5070518;28;20959;-74
2023/10/20 12:13:26;;;;;;;4.63;3.70;;;17.00;99.90;;;;;;5078524;28;20470;-75
2023/10/20 12:16:11;;;;;;;4.77;3.50;;;17.10;99.90;;;;;;5084695;28;20431;-76
2023/10/20 12:19:01;;;;;;;3.97;3.17;;;17.10;99.90;;;;;;5087499;28;20450;-76
2023/10/20 12:21:46;;;;;;;6.87;3.53;;;17.10;99.90;;;;;;5087771;28;20397;-76
2023/10/20 12:24:32;;;;;;;5.70;3.80;;;17.20;99.90;;;;;;5078078;28;20527;-75
2023/10/20 12:27:17;;;;;;;5.33;4.17;;;17.30;99.90;;;;;;5063227;28;20519;-75
2023/10/20 12:30:05;;;;;;;4.63;3.10;;;17.30;99.90;;;;;;5072878;28;20421;-74
2023/10/20 12:32:50;;;;;;;8.03;3.73;;;17.30;99.90;;;;;;5055125;28;20479;-75
2023/10/20 12:35:36;;;;;;;4.93;3.50;;;17.30;99.90;;;;;;5058816;28;20793;-74
2023/10/20 12:38:23;;;;;;;5.20;3.10;;;17.30;99.90;;;;;;5082397;28;20430;-74
2023/10/20 12:41:09;;;;;;;4.47;2.90;;;17.20;99.90;;;;;;5086596;28;20423;-75
2023/10/20 12:43:55;;;;;;;5.93;3.30;;;17.20;99.90;;;;;;5089464;28;20482;-74
2023/10/20 12:46:42;;;;;;;3.60;2.90;;;17.20;99.90;;;;;;5081771;28;20398;-74
2023/10/20 12:49:28;;;;;;;11.37;3.57;;;17.20;99.90;;;;;;5078314;28;20432;-75
2023/10/20 12:52:13;;;;;;;4.50;3.27;;;17.20;99.90;;;;;;5089703;28;20507;-75
2023/10/20 12:55:00;;;;;;;5.67;3.57;;;17.30;99.90;;;;;;5089828;28;20425;-74
2023/10/20 12:57:46;;;;;;;6.57;3.40;;;17.40;99.90;;;;;;5089488;28;20596;-74
2023/10/20 13:00:31;;;;;;;3.80;2.77;;;17.40;99.90;;;;;;5079010;28;20435;-75
2023/10/20 13:03:19;;;;;;;7.10;3.03;;;17.40;99.90;;;;;;5077523;28;20813;-75
2023/10/20 13:06:06;;;;;;;4.07;2.60;;;17.50;99.90;;;;;;5086624;28;20442;-74
2023/10/20 13:08:51;;;;;;;2.90;2.50;;;17.40;99.90;;;;;;5077663;28;20511;-75
2023/10/20 13:11:37;;;;;;;3.00;2.00;;;17.50;99.90;;;;;;5087515;28;20505;-74
2023/10/20 13:14:23;;;;;;;3.53;2.30;;;17.50;99.90;;;;;;5089849;28;20766;-74
2023/10/20 13:17:09;;;;;;;3.67;2.10;;;17.50;99.90;;;;;;5089573;28;20424;-74
2023/10/20 13:19:56;;;;;;;3.40;2.17;;;17.60;99.90;;;;;;5075336;28;20400;-74
2023/10/20 13:22:42;;;;;;;3.23;1.90;;;17.50;99.90;;;;;;5090644;28;20439;-74
2023/10/20 13:25:28;;;;;;;7.40;1.97;;;17.50;99.90;;;;;;5089214;28;20406;-74
2023/10/20 13:28:13;;;;;;;2.20;1.60;;;17.50;99.90;;;;;;5080649;28;21072;-75
2023/10/20 13:31:06;;;;;;;2.03;1.50;;;17.50;99.90;;;;;;5089271;28;20949;-75
2023/10/20 13:33:52;;;;;;;2.80;1.77;;;17.50;99.90;;;;;;5088616;28;20511;-75
2023/10/20 13:36:39;;;;;;;2.17;1.40;;;17.60;99.90;;;;;;5077659;28;20527;-75
2023/10/20 13:39:25;;;;;;;2.70;1.50;;;17.60;99.90;;;;;;5090188;28;20414;-74
2023/10/20 13:42:11;;;;;;;2.00;1.30;;;17.60;99.90;;;;;;5089222;28;20411;-74
2023/10/20 13:44:56;;;;;;;2.00;1.10;;;17.60;99.90;;;;;;5089327;28;20554;-76
2023/10/20 13:47:42;;;;;;;1.90;1.20;;;17.50;99.90;;;;;;5090399;28;20469;-75
2023/10/20 13:50:28;;;;;;;1.63;1.20;;;17.50;99.90;;;;;;5089536;28;20564;-75
2023/10/20 13:53:15;;;;;;;2.00;1.37;;;17.60;99.90;;;;;;5074346;28;20567;-76
2023/10/20 13:56:00;;;;;;;4.03;1.40;;;17.60;99.90;;;;;;5081382;28;20551;-74
2023/10/20 13:58:46;;;;;;;2.37;1.37;;;17.60;99.90;;;;;;5089131;28;20440;-77
2023/10/20 14:01:31;;;;;;;2.70;1.40;;;17.60;99.90;;;;;;5077555;28;20903;-74
2023/10/20 14:04:18;;;;;;;2.40;1.20;;;17.60;99.90;;;;;;5089354;28;20461;-74
2023/10/20 14:07:04;;;;;;;1.93;1.10;;;17.60;99.90;;;;;;5084908;28;20481;-74
2023/10/20 14:09:50;;;;;;;2.00;1.03;;;17.60;99.90;;;;;;5078541;28;20412;-74
2023/10/20 14:12:36;;;;;;;1.70;1.00;;;17.60;99.90;;;;;;5079943;28;20447;-74
2023/10/20 14:15:23;;;;;;;2.10;1.30;;;17.60;99.90;;;;;;5089101;28;20419;-75
2023/10/20 14:18:08;;;;;;;2.07;0.80;;;17.60;99.90;;;;;;5090200;28;20472;-74
2023/10/20 14:20:54;;;;;;;3.63;0.90;;;17.50;99.90;;;;;;5089168;28;20400;-75
2023/10/20 14:23:40;;;;;;;2.67;1.03;;;17.50;99.90;;;;;;5090336;28;20430;-74
2023/10/20 14:26:26;;;;;;;1.83;1.00;;;17.40;99.90;;;;;;5082107;28;20785;-74
2023/10/20 14:29:12;;;;;;;2.70;1.30;;;17.30;99.90;;;;;;5088924;28;21287;-74
2023/10/20 14:31:58;;;;;;;1.57;0.80;;;17.30;99.90;;;;;;5089726;28;20524;-74
2023/10/20 14:34:44;;;;;;;1.70;0.90;;;17.30;99.90;;;;;;5088803;28;20441;-74
2023/10/20 14:37:30;;;;;;;2.33;1.00;;;17.20;99.90;;;;;;5087882;28;20397;-74
2023/10/20 14:40:16;;;;;;;1.67;0.90;;;17.20;99.90;;;;;;5080422;28;20430;-74
2023/10/20 14:43:04;;;;;;;2.20;1.00;;;17.20;99.90;;;;;;5088296;28;20798;-75
2023/10/20 14:45:56;;;;;;;2.77;1.10;;;17.20;99.90;;;;;;5082457;28;21056;-75
2023/10/20 14:48:41;;;;;;;1.73;1.03;;;17.20;99.90;;;;;;5090036;28;20433;-75
2023/10/20 14:51:28;;;;;;;2.33;1.37;;;17.10;99.90;;;;;;5090154;28;20430;-75
2023/10/20 14:54:15;;;;;;;3.23;1.30;;;17.10;99.90;;;;;;5089522;28;20950;-74